Time;durP1;ratioP1;P1;durP2;ratioP2;P2;SDS_P1;SDS_P2;PMS_P1;PMS_P2;Temp;Humidity;BMP_temperature;BMP_pressure;BME280_temperature;BME280_humidity;BME280_pressure;Samples;Min_cycle;Max_cycle;Signal;HPM_P1;HPM_P2
2021/07/31 00:02:18;;;;;;;16.50;13.27;;;;;;;23.19;100.00;95933.19;5135016;27;20757;-80
2021/07/31 00:04:45;;;;;;;14.43;12.20;;;;;;;23.35;100.00;95931.56;5135337;27;20673;-81
2021/07/31 00:07:13;;;;;;;14.23;12.93;;;;;;;23.35;100.00;95940.41;5135183;27;20281;-81
2021/07/31 00:09:40;;;;;;;16.90;12.77;;;;;;;23.34;100.00;95936.06;5134728;27;20285;-81
2021/07/31 00:12:08;;;;;;;13.93;12.43;;;;;;;23.41;100.00;95930.53;5135097;27;20231;-81
2021/07/31 00:14:35;;;;;;;18.67;12.97;;;;;;;23.50;100.00;95942.47;5134823;27;20191;-81
2021/07/31 00:17:06;;;;;;;13.83;12.53;;;;;;;23.59;100.00;95940.16;5134771;27;20663;-81
2021/07/31 00:19:34;;;;;;;18.10;12.87;;;;;;;23.62;100.00;95943.19;5134458;27;20226;-81
2021/07/31 00:22:02;;;;;;;16.33;12.00;;;;;;;23.62;100.00;95945.88;5134677;27;20234;-81
2021/07/31 00:24:29;;;;;;;17.00;13.03;;;;;;;23.42;100.00;95935.66;5134635;27;20191;-81
2021/07/31 00:26:56;;;;;;;15.10;12.20;;;;;;;23.24;100.00;95922.53;5135066;27;20282;-81
2021/07/31 00:29:24;;;;;;;16.70;12.27;;;;;;;23.07;100.00;95921.75;5134502;27;20252;-81
2021/07/31 00:31:51;;;;;;;17.87;12.63;;;;;;;23.24;100.00;95923.38;5134478;27;20202;-81
2021/07/31 00:34:20;;;;;;;14.33;11.97;;;;;;;23.22;100.00;95927.34;5134465;27;20285;-82
2021/07/31 00:36:47;;;;;;;18.97;12.67;;;;;;;22.94;100.00;95921.03;5134453;27;20248;-81
2021/07/31 00:39:14;;;;;;;16.43;12.50;;;;;;;23.21;100.00;95915.00;5134357;27;20309;-81
2021/07/31 00:41:41;;;;;;;16.43;10.93;;;;;;;23.15;100.00;95916.78;5134505;27;20198;-81
2021/07/31 00:44:09;;;;;;;23.50;13.67;;;;;;;23.36;100.00;95925.94;5134334;27;20293;-81
2021/07/31 00:46:36;;;;;;;17.63;12.67;;;;;;;23.40;100.00;95937.78;5134712;27;20273;-81
2021/07/31 00:49:03;;;;;;;18.13;12.57;;;;;;;22.93;100.00;95922.09;5134116;27;20698;-81
2021/07/31 00:51:32;;;;;;;16.37;13.17;;;;;;;23.02;100.00;95903.72;5134205;27;20208;-81
2021/07/31 00:54:00;;;;;;;13.70;12.03;;;;;;;22.84;100.00;95915.50;5133824;27;20195;-82
2021/07/31 00:56:27;;;;;;;14.70;12.00;;;;;;;22.94;100.00;95913.00;5134487;27;20662;-82
2021/07/31 00:58:54;;;;;;;21.77;13.10;;;;;;;22.97;100.00;95917.88;5133891;27;20230;-81
2021/07/31 01:01:21;;;;;;;15.43;13.33;;;;;;;22.96;100.00;95918.91;5134360;27;20208;-81
2021/07/31 01:03:49;;;;;;;20.53;13.27;;;;;;;22.74;100.00;95918.00;5133630;27;20281;-81
2021/07/31 01:06:16;;;;;;;19.13;13.60;;;;;;;22.95;100.00;95913.81;5134313;27;20195;-81
2021/07/31 01:08:45;;;;;;;13.33;11.67;;;;;;;23.04;100.00;95923.06;5133756;27;20237;-81
2021/07/31 01:11:12;;;;;;;16.83;12.80;;;;;;;23.14;100.00;95908.97;5132973;27;20273;-81
2021/07/31 01:13:40;;;;;;;18.27;12.70;;;;;;;23.00;100.00;95917.38;5133588;27;20233;-82
2021/07/31 01:16:09;;;;;;;17.40;13.10;;;;;;;22.98;100.00;95916.00;5134040;27;20226;-81
2021/07/31 01:18:36;;;;;;;18.50;12.80;;;;;;;22.85;100.00;95911.75;5133837;27;20218;-81
2021/07/31 01:21:04;;;;;;;17.90;13.63;;;;;;;22.48;100.00;95901.53;5133391;27;20663;-81
2021/07/31 01:23:33;;;;;;;18.57;12.20;;;;;;;22.48;100.00;95892.66;5133616;27;20233;-81
2021/07/31 01:26:00;;;;;;;23.90;14.23;;;;;;;22.50;100.00;95886.03;5133811;27;20195;-80
2021/07/31 01:28:27;;;;;;;17.97;13.03;;;;;;;22.65;100.00;95890.81;5133519;27;20653;-81
2021/07/31 01:30:55;;;;;;;16.67;12.33;;;;;;;22.83;100.00;95892.44;5133124;27;20190;-81
2021/07/31 01:33:22;;;;;;;14.57;13.07;;;;;;;22.70;100.00;95893.56;5133738;27;20278;-81
2021/07/31 01:35:49;;;;;;;22.47;13.00;;;;;;;22.77;100.00;95891.53;5133344;27;20602;-80
2021/07/31 01:38:16;;;;;;;12.43;11.27;;;;;;;22.72;100.00;95891.47;5133235;27;20214;-80
2021/07/31 01:40:45;;;;;;;16.07;13.07;;;;;;;22.73;100.00;95885.06;5133406;27;20579;-81
2021/07/31 01:43:13;;;;;;;13.87;12.27;;;;;;;22.73;100.00;95895.78;5133564;27;20233;-81
2021/07/31 01:45:40;;;;;;;14.53;13.17;;;;;;;22.83;100.00;95892.44;5133471;27;20195;-81
2021/07/31 01:48:07;;;;;;;16.03;13.37;;;;;;;22.85;100.00;95884.94;5133170;27;20622;-81
2021/07/31 01:50:34;;;;;;;22.93;13.13;;;;;;;22.94;100.00;95885.41;5132834;27;20202;-81
2021/07/31 01:53:01;;;;;;;15.97;12.97;;;;;;;22.78;100.00;95887.00;5133143;27;20205;-80
2021/07/31 01:55:29;;;;;;;13.57;12.13;;;;;;;22.87;100.00;95890.09;5132992;27;20190;-81
2021/07/31 01:57:57;;;;;;;19.17;12.57;;;;;;;22.85;100.00;95895.66;5133017;27;20218;-81
2021/07/31 02:00:25;;;;;;;14.37;12.83;;;;;;;22.60;100.00;95889.94;5132654;27;20191;-80
2021/07/31 02:02:52;;;;;;;18.77;13.70;;;;;;;22.59;100.00;95888.31;5133302;27;20590;-81
2021/07/31 02:05:19;;;;;;;14.60;12.93;;;;;;;22.55;100.00;95888.78;5132921;27;20292;-80
2021/07/31 02:07:46;;;;;;;15.13;11.63;;;;;;;22.65;100.00;95893.47;5132964;27;20636;-81
2021/07/31 02:10:14;;;;;;;18.47;13.37;;;;;;;22.60;100.00;95885.38;5132779;27;20194;-81
2021/07/31 02:12:42;;;;;;;15.83;13.60;;;;;;;22.58;100.00;95892.03;5132940;27;20205;-81
2021/07/31 02:15:11;;;;;;;14.47;13.00;;;;;;;22.71;100.00;95894.38;5132903;27;20205;-81
2021/07/31 02:17:38;;;;;;;14.30;12.70;;;;;;;22.45;100.00;95887.81;5133133;27;20198;-81
2021/07/31 02:20:07;;;;;;;15.27;11.37;;;;;;;22.54;100.00;95897.88;5132153;27;20281;-81
2021/07/31 02:22:34;;;;;;;16.40;13.13;;;;;;;22.59;100.00;95896.34;5132531;27;20286;-81
2021/07/31 02:25:01;;;;;;;15.40;12.47;;;;;;;22.40;100.00;95895.75;5132588;27;20247;-82
2021/07/31 02:27:29;;;;;;;21.97;14.77;;;;;;;22.39;100.00;95900.31;5132657;27;20630;-81
2021/07/31 02:29:56;;;;;;;14.77;12.43;;;;;;;22.06;100.00;95904.53;5132326;27;20187;-81
2021/07/31 02:32:24;;;;;;;14.90;13.47;;;;;;;21.82;100.00;95893.09;5132643;27;20277;-81
2021/07/31 02:34:52;;;;;;;14.40;12.93;;;;;;;21.98;100.00;95896.88;5132842;27;20202;-81
2021/07/31 02:37:19;;;;;;;15.30;13.80;;;;;;;22.24;100.00;95894.69;5132809;27;20259;-81
2021/07/31 02:39:46;;;;;;;22.43;14.37;;;;;;;22.44;100.00;95897.69;5132166;27;20254;-81
2021/07/31 02:42:15;;;;;;;16.17;13.40;;;;;;;22.39;100.00;95900.31;5132567;27;20234;-81
2021/07/31 02:44:42;;;;;;;16.97;14.17;;;;;;;22.22;100.00;95896.78;5132449;27;20342;-82
2021/07/31 02:47:09;;;;;;;16.53;14.67;;;;;;;22.28;100.00;95893.16;5132609;27;20205;-82
2021/07/31 02:49:38;;;;;;;15.43;13.60;;;;;;;22.30;100.00;95901.75;5132555;28;20195;-81
2021/07/31 02:52:05;;;;;;;18.63;13.73;;;;;;;22.39;100.00;95899.50;5132524;27;20238;-80
2021/07/31 02:54:33;;;;;;;20.60;13.17;;;;;;;22.16;100.00;95905.78;5132410;27;20286;-81
2021/07/31 02:57:00;;;;;;;18.07;14.87;;;;;;;21.94;100.00;95901.06;5132424;27;20241;-81
2021/07/31 02:59:27;;;;;;;16.07;13.80;;;;;;;22.20;100.00;95897.03;5132403;27;20644;-82
2021/07/31 03:01:55;;;;;;;15.83;13.27;;;;;;;22.40;100.00;95909.13;5132726;27;20627;-81
2021/07/31 03:04:22;;;;;;;18.53;14.33;;;;;;;22.47;100.00;95904.44;5132243;27;20299;-81
2021/07/31 03:06:51;;;;;;;13.90;12.43;;;;;;;22.41;100.00;95914.28;5132645;27;20194;-80
2021/07/31 03:09:18;;;;;;;21.13;13.70;;;;;;;22.43;100.00;95911.34;5132388;27;20195;-81
2021/07/31 03:11:45;;;;;;;14.50;13.03;;;;;;;22.42;100.00;95902.50;5132603;27;20635;-80
2021/07/31 03:14:13;;;;;;;16.50;13.33;;;;;;;22.20;100.00;95910.44;5132142;27;20294;-81
2021/07/31 03:16:40;;;;;;;12.37;11.20;;;;;;;22.29;100.00;95906.28;5131978;27;20638;-81
2021/07/31 03:19:07;;;;;;;14.70;12.97;;;;;;;22.35;100.00;95909.88;5131753;27;20234;-81
2021/07/31 03:21:34;;;;;;;16.90;12.37;;;;;;;22.39;100.00;95927.06;5132195;27;20194;-81
2021/07/31 03:24:03;;;;;;;14.20;12.27;;;;;;;22.29;100.00;95917.00;5132057;27;20457;-81
2021/07/31 03:26:30;;;;;;;13.83;12.37;;;;;;;22.36;100.00;95926.75;5131989;27;20197;-81
2021/07/31 03:28:58;;;;;;;16.27;13.63;;;;;;;22.29;100.00;95921.53;5132318;27;20195;-81
2021/07/31 03:31:25;;;;;;;16.40;13.40;;;;;;;22.22;100.00;95918.19;5132335;27;20713;-81
2021/07/31 03:33:52;;;;;;;15.23;13.47;;;;;;;22.13;100.00;95922.28;5134065;27;20202;-81
2021/07/31 03:36:19;;;;;;;16.60;12.60;;;;;;;22.13;100.00;95925.75;5135530;27;20251;-81
2021/07/31 03:38:47;;;;;;;17.70;13.30;;;;;;;22.14;100.00;95923.94;5135916;27;20228;-81
2021/07/31 03:41:15;;;;;;;13.67;12.20;;;;;;;22.14;100.00;95926.59;5135709;27;20290;-81
2021/07/31 03:43:43;;;;;;;24.10;15.83;;;;;;;21.92;100.00;95911.19;5135592;27;20198;-81
2021/07/31 03:46:10;;;;;;;15.53;13.80;;;;;;;22.07;100.00;95924.88;5135592;27;20579;-78
2021/07/31 03:48:37;;;;;;;18.97;14.20;;;;;;;22.16;100.00;95924.50;5135547;27;20195;-77
2021/07/31 03:51:04;;;;;;;16.97;14.47;;;;;;;22.19;100.00;95924.03;5135730;27;20205;-77
2021/07/31 03:53:31;;;;;;;15.77;13.97;;;;;;;22.21;100.00;95925.44;5135301;27;20222;-77
2021/07/31 03:55:59;;;;;;;14.80;13.07;;;;;;;22.34;100.00;95929.66;5135254;27;20202;-77
2021/07/31 03:58:27;;;;;;;14.33;13.03;;;;;;;22.39;100.00;95915.56;5139050;27;20205;-77
2021/07/31 04:00:54;;;;;;;19.27;14.37;;;;;;;22.24;100.00;95924.94;5155704;27;20189;-77
2021/07/31 04:03:22;;;;;;;20.23;13.63;;;;;;;22.18;100.00;95933.13;5155933;27;20193;-77
2021/07/31 04:05:49;;;;;;;25.20;14.47;;;;;;;22.29;100.00;95933.06;5155196;27;20201;-78
2021/07/31 04:08:16;;;;;;;17.47;14.20;;;;;;;22.19;100.00;95916.81;5155862;27;20197;-79
2021/07/31 04:10:43;;;;;;;19.77;15.33;;;;;;;21.98;100.00;95925.50;5155390;27;20284;-77
2021/07/31 04:13:11;;;;;;;17.80;13.30;;;;;;;21.93;100.00;95923.53;5157381;27;20233;-76
2021/07/31 04:15:43;;;;;;;17.50;13.57;;;;;;;21.93;100.00;95928.88;5160635;27;20190;-76
2021/07/31 04:18:10;;;;;;;16.10;13.10;;;;;;;21.90;100.00;95934.72;5155658;27;20555;-77
2021/07/31 04:20:37;;;;;;;14.80;11.93;;;;;;;21.91;100.00;95936.34;5155222;27;20698;-77
2021/07/31 04:23:04;;;;;;;14.00;12.60;;;;;;;21.96;100.00;95940.97;5155260;27;20201;-77
2021/07/31 04:25:32;;;;;;;19.43;14.57;;;;;;;22.09;100.00;95938.00;5155285;27;20189;-77
2021/07/31 04:27:59;;;;;;;16.00;13.97;;;;;;;22.14;100.00;95934.63;5155446;27;20200;-77
2021/07/31 04:30:27;;;;;;;13.93;12.57;;;;;;;22.17;100.00;95932.31;5155228;27;20194;-78
2021/07/31 04:32:56;;;;;;;16.77;14.10;;;;;;;22.31;100.00;95928.28;5155019;27;20194;-78
2021/07/31 04:35:24;;;;;;;17.10;13.20;;;;;;;22.36;100.00;95934.78;5155164;27;20666;-77
2021/07/31 04:37:51;;;;;;;14.57;13.07;;;;;;;22.40;100.00;95934.03;5155500;27;20194;-82
2021/07/31 04:40:18;;;;;;;18.40;13.20;;;;;;;22.41;100.00;95922.31;5164373;27;20221;-79
2021/07/31 04:42:46;;;;;;;24.20;14.27;;;;;;;22.47;100.00;95928.53;5155904;27;20220;-81
2021/07/31 04:45:13;;;;;;;16.00;14.30;;;;;;;22.63;100.00;95932.31;5155171;27;20224;-81
2021/07/31 04:47:41;;;;;;;18.50;13.77;;;;;;;22.44;100.00;95942.41;5155472;27;20225;-81
2021/07/31 04:50:12;;;;;;;18.00;14.20;;;;;;;22.31;100.00;95955.06;5154863;27;20194;-81
2021/07/31 04:52:39;;;;;;;16.80;13.33;;;;;;;22.41;100.00;95956.28;5154836;27;20185;-81
2021/07/31 04:55:08;;;;;;;16.77;15.00;;;;;;;22.48;100.00;95962.28;5154774;27;20194;-81
2021/07/31 04:57:35;;;;;;;16.07;14.47;;;;;;;22.62;100.00;95955.59;5154894;27;20284;-82
2021/07/31 05:00:03;;;;;;;16.27;12.47;;;;;;;22.73;100.00;95960.06;5154362;27;20233;-81
2021/07/31 05:02:33;;;;;;;15.67;13.97;;;;;;;22.83;100.00;95963.97;5154813;27;20240;-81
2021/07/31 05:05:01;;;;;;;18.67;14.27;;;;;;;22.99;100.00;95963.97;5154602;27;20243;-81
2021/07/31 05:07:29;;;;;;;15.53;13.97;;;;;;;22.97;100.00;95971.47;5154437;27;20223;-81
2021/07/31 05:09:57;;;;;;;14.70;13.27;;;;;;;23.01;100.00;95964.56;5154767;27;20270;-80
2021/07/31 05:12:24;;;;;;;16.17;13.43;;;;;;;23.12;100.00;95956.69;5154589;27;20200;-81
2021/07/31 05:14:52;;;;;;;19.00;14.20;;;;;;;23.12;100.00;95949.44;5154306;27;20194;-81
2021/07/31 05:17:20;;;;;;;17.57;14.87;;;;;;;23.18;100.00;95947.66;5154596;27;20558;-81
2021/07/31 05:19:48;;;;;;;18.73;14.00;;;;;;;23.18;100.00;95956.50;5154135;27;20697;-80
2021/07/31 05:22:16;;;;;;;19.27;15.03;;;;;;;23.15;100.00;95959.69;5154859;27;20248;-81
2021/07/31 05:24:44;;;;;;;16.87;15.10;;;;;;;23.38;100.00;95971.25;5154522;27;20574;-81
2021/07/31 05:27:12;;;;;;;16.40;13.93;;;;;;;23.48;100.00;95980.28;5154475;27;20229;-81
2021/07/31 05:29:39;;;;;;;18.07;14.70;;;;;;;23.58;100.00;95984.94;5154087;27;20666;-81
2021/07/31 05:32:08;;;;;;;16.93;14.87;;;;;;;23.77;100.00;95982.84;5154631;27;20194;-81
2021/07/31 05:34:35;;;;;;;16.50;14.00;;;;;;;23.87;100.00;95990.22;5153809;27;20234;-82
2021/07/31 05:37:02;;;;;;;17.33;15.63;;;;;;;23.94;100.00;95985.47;5154292;27;20573;-81
2021/07/31 05:39:33;;;;;;;17.30;14.93;;;;;;;24.01;100.00;95999.50;5153925;27;20308;-81
2021/07/31 05:42:05;;;;;;;16.60;14.30;;;;;;;24.18;100.00;96007.50;5154263;27;20185;-82
2021/07/31 05:44:32;;;;;;;20.57;14.03;;;;;;;24.32;100.00;96008.72;5153643;27;20276;-81
2021/07/31 05:46:59;;;;;;;24.63;14.83;;;;;;;24.50;100.00;96007.59;5154116;27;20198;-81
2021/07/31 05:49:30;;;;;;;15.47;13.73;;;;;;;24.62;100.00;96002.06;5153806;27;20662;-80
2021/07/31 05:51:57;;;;;;;16.33;13.00;;;;;;;24.67;100.00;96008.31;5153863;27;20186;-80
2021/07/31 05:54:24;;;;;;;17.60;11.67;;;;;;;24.92;100.00;96018.47;5153493;27;20227;-81
2021/07/31 05:56:52;;;;;;;13.52;11.32;;;;;;;25.12;100.00;96022.47;5153690;27;20202;-81
2021/07/31 05:59:20;;;;;;;15.33;10.83;;;;;;;25.26;100.00;96026.34;5153589;27;20214;-81
2021/07/31 06:01:47;;;;;;;15.93;10.80;;;;;;;25.52;100.00;96040.75;5153836;27;20198;-81
2021/07/31 06:04:15;;;;;;;14.85;9.00;;;;;;;25.58;100.00;96033.53;5153597;27;20663;-81
2021/07/31 06:06:42;;;;;;;15.50;9.97;;;;;;;25.56;100.00;96038.38;5153831;27;20238;-81
2021/07/31 06:09:09;;;;;;;14.47;10.23;;;;;;;25.50;100.00;96031.34;5153446;27;20197;-81
2021/07/31 06:11:36;;;;;;;11.60;10.45;;;;;;;25.35;100.00;96030.16;5153398;27;20281;-81
2021/07/31 06:14:04;;;;;;;14.23;9.88;;;;;;;25.25;100.00;96027.41;5153145;27;20233;-81
2021/07/31 06:16:33;;;;;;;12.97;9.37;;;;;;;25.52;100.00;96024.63;5153531;27;20198;-81
2021/07/31 06:19:00;;;;;;;18.08;10.68;;;;;;;25.85;100.00;96034.28;5153176;27;20278;-81
2021/07/31 06:21:27;;;;;;;13.00;8.63;;;;;;;26.21;100.00;96039.81;5153504;27;20229;-81
2021/07/31 06:23:54;;;;;;;13.23;8.40;;;;;;;26.41;100.00;96049.88;5153417;27;20294;-81
2021/07/31 06:26:21;;;;;;;15.55;8.68;;;;;;;26.67;100.00;96047.28;5153277;27;20289;-81
2021/07/31 06:28:49;;;;;;;12.23;9.13;;;;;;;26.90;100.00;96045.97;5153389;27;20277;-81
2021/07/31 06:31:16;;;;;;;14.20;8.82;;;;;;;27.12;100.00;96053.81;5153745;27;20262;-82
2021/07/31 06:33:45;;;;;;;17.17;9.27;;;;;;;27.29;100.00;96051.69;5153101;27;20648;-81
2021/07/31 06:36:13;;;;;;;11.52;8.68;;;;;;;27.47;100.00;96045.78;5153292;27;20194;-81
2021/07/31 06:38:40;;;;;;;11.45;8.10;;;;;;;27.56;100.00;96045.22;5153369;27;20281;-81
2021/07/31 06:41:07;;;;;;;10.10;8.00;;;;;;;27.61;100.00;96054.13;5153648;27;20301;-81
2021/07/31 06:43:34;;;;;;;10.52;9.27;;;;;;;27.92;100.00;96051.41;5153408;27;20236;-81
2021/07/31 06:46:10;;;;;;;18.00;9.40;;;;;;;28.13;100.00;96061.06;5152416;27;20198;-83
2021/07/31 06:48:37;;;;;;;11.02;8.40;;;;;;;28.36;100.00;96050.69;5153355;27;20196;-81
2021/07/31 06:51:06;;;;;;;16.35;8.70;;;;;;;28.65;100.00;96058.97;5152908;27;20200;-80
2021/07/31 06:53:33;;;;;;;10.32;8.85;;;;;;;28.68;100.00;96059.22;5141230;27;20198;-80
2021/07/31 06:56:01;;;;;;;8.75;7.85;;;;;;;28.98;100.00;96057.41;5152952;27;20227;-81
2021/07/31 06:58:28;;;;;;;11.07;7.20;;;;;;;29.10;100.00;96059.81;5153764;27;20294;-80
2021/07/31 07:00:56;;;;;;;8.52;7.40;;;;;;;28.88;100.00;96060.19;5152771;27;20226;-80
2021/07/31 07:03:24;;;;;;;9.20;7.95;;;;;;;29.17;100.00;96057.59;5153075;27;20236;-81
2021/07/31 07:05:51;;;;;;;10.80;8.60;;;;;;;29.37;100.00;96062.03;5152832;27;20198;-80
2021/07/31 07:08:20;;;;;;;10.98;8.15;;;;;;;29.33;100.00;96058.28;5154334;27;20285;-81
2021/07/31 07:10:47;;;;;;;9.50;7.45;;;;;;;29.44;100.00;96065.22;5156857;27;20662;-80
2021/07/31 07:13:14;;;;;;;13.30;8.13;;;;;;;29.52;100.00;96063.81;5156786;27;20290;-81
2021/07/31 07:15:41;;;;;;;9.38;7.25;;;;;;;29.69;100.00;96064.22;5157017;27;20220;-80
2021/07/31 07:18:09;;;;;;;10.80;8.23;;;;;;;29.61;100.00;96071.03;5156958;27;20198;-80
2021/07/31 07:20:36;;;;;;;8.52;7.35;;;;;;;29.87;100.00;96061.91;5156428;27;20230;-80
2021/07/31 07:23:03;;;;;;;12.52;7.90;;;;;;;29.81;100.00;96063.84;5156938;27;20212;-80
2021/07/31 07:25:32;;;;;;;12.32;7.88;;;;;;;29.78;100.00;96064.41;5156635;27;20208;-80
2021/07/31 07:28:00;;;;;;;14.30;8.93;;;;;;;29.83;100.00;96057.03;5156686;27;20247;-80
2021/07/31 07:30:27;;;;;;;12.52;8.43;;;;;;;29.94;100.00;96063.16;5156815;27;20277;-80
2021/07/31 07:32:55;;;;;;;9.23;8.20;;;;;;;30.11;100.00;96065.44;5156672;27;20186;-81
2021/07/31 07:35:22;;;;;;;8.60;7.72;;;;;;;30.09;100.00;96068.41;5156429;27;20246;-81
2021/07/31 07:37:50;;;;;;;10.82;7.68;;;;;;;30.22;100.00;96066.16;5156887;27;20584;-80
2021/07/31 07:40:17;;;;;;;10.45;8.48;;;;;;;30.13;100.00;96068.63;5156206;27;20220;-80
2021/07/31 07:42:46;;;;;;;15.52;8.68;;;;;;;30.07;100.00;96065.19;5156263;27;20277;-80
2021/07/31 07:45:13;;;;;;;10.60;7.30;;;;;;;30.03;100.00;96069.59;5148396;27;20195;-81
2021/07/31 07:47:40;;;;;;;8.55;6.72;;;;;;;30.24;100.00;96072.06;5135458;27;20223;-82
2021/07/31 07:50:09;;;;;;;18.23;7.32;;;;;;;30.37;100.00;96067.84;5135023;27;20191;-81
2021/07/31 07:52:36;;;;;;;7.80;7.10;;;;;;;30.28;100.00;96062.28;5135398;27;20198;-81
2021/07/31 07:55:03;;;;;;;10.18;7.15;;;;;;;30.50;100.00;96073.38;5134927;27;20667;-81
2021/07/31 07:57:31;;;;;;;12.60;6.97;;;;;;;30.55;100.00;96067.91;5134985;27;20285;-82
2021/07/31 07:59:59;;;;;;;9.73;6.55;;;;;;;30.68;100.00;96068.28;5134803;27;20306;-82
2021/07/31 08:02:27;;;;;;;16.83;7.50;;;;;;;30.88;100.00;96064.50;5135072;27;20673;-82
2021/07/31 08:04:54;;;;;;;12.05;7.35;;;;;;;31.17;100.00;96067.88;5135062;27;20209;-83
2021/07/31 08:07:21;;;;;;;10.35;6.78;;;;;;;31.42;100.00;96063.19;5135239;27;20195;-83
2021/07/31 08:09:48;;;;;;;13.27;7.25;;;;;;;31.34;100.00;96070.09;5134817;27;20293;-84
2021/07/31 08:12:16;;;;;;;9.50;7.20;;;;;;;31.39;100.00;96078.16;5134817;27;20700;-82
2021/07/31 08:14:43;;;;;;;6.78;6.07;;;;;;;31.42;100.00;96074.06;5134998;27;20194;-82
2021/07/31 08:17:11;;;;;;;12.05;7.03;;;;;;;31.59;100.00;96079.75;5135027;27;20194;-82
2021/07/31 08:19:39;;;;;;;7.35;6.65;;;;;;;31.48;100.00;96073.66;5133753;27;20227;-82
2021/07/31 08:22:06;;;;;;;11.00;6.53;;;;;;;31.79;100.00;96077.75;5134611;27;20213;-82
2021/07/31 08:24:33;;;;;;;11.07;6.95;;;;;;;31.99;100.00;96079.34;5134386;27;20201;-81
2021/07/31 08:27:01;;;;;;;10.38;6.97;;;;;;;31.60;100.00;96072.41;5134666;27;20269;-82
2021/07/31 08:29:28;;;;;;;9.75;6.85;;;;;;;31.67;100.00;96075.53;5134542;27;20191;-82
2021/07/31 08:31:55;;;;;;;14.90;6.57;;;;;;;31.71;100.00;96065.69;5136005;27;20662;-82
2021/07/31 08:34:24;;;;;;;12.13;7.38;;;;;;;31.73;100.00;96077.88;5135528;27;20290;-82
2021/07/31 08:36:51;;;;;;;9.70;6.47;;;;;;;31.95;100.00;96073.69;5132456;27;20285;-82
2021/07/31 08:39:18;;;;;;;20.02;7.72;;;;;;;31.94;100.00;96070.19;5132599;27;20201;-81
2021/07/31 08:41:47;;;;;;;9.13;7.25;;;;;;;31.93;100.00;96070.47;5133308;27;20374;-82
2021/07/31 08:44:16;;;;;;;10.05;6.90;;;;;;;32.10;100.00;96062.53;5136603;27;20194;-82
2021/07/31 08:46:51;;;;;;;13.13;7.55;;;;;;;32.68;100.00;96058.41;5142318;27;20216;-82
2021/07/31 08:49:27;;;;;;;10.63;7.10;;;;;;;32.32;100.00;96063.72;5146757;27;20194;-82
2021/07/31 08:51:58;;;;;;;11.15;7.07;;;;;;;32.51;100.00;96067.19;5141910;27;20175;-83
2021/07/31 08:54:25;;;;;;;9.70;6.88;;;;;;;32.76;100.00;96056.88;5134324;27;20183;-82
2021/07/31 08:56:55;;;;;;;8.70;6.25;;;;;;;32.88;100.00;96054.44;5138252;27;20199;-82
2021/07/31 08:59:26;;;;;;;12.38;7.03;;;;;;;33.03;100.00;96053.31;5141626;27;20179;-82
2021/07/31 09:01:54;;;;;;;11.77;7.93;;;;;;;33.12;100.00;96059.63;5137441;27;20710;-81
2021/07/31 09:04:22;;;;;;;8.93;7.40;;;;;;;33.44;100.00;96047.69;5140044;27;20187;-83
2021/07/31 09:06:49;;;;;;;11.10;6.80;;;;;;;33.36;100.00;96049.25;5133858;27;20194;-82
2021/07/31 09:09:24;;;;;;;10.05;7.35;;;;;;;33.34;100.00;96042.50;5133927;27;20253;-83
2021/07/31 09:11:59;;;;;;;16.00;6.40;;;;;;;33.04;100.00;96047.53;5135949;27;20561;-82
2021/07/31 09:14:27;;;;;;;11.43;6.45;;;;;;;32.98;100.00;96046.06;5133717;27;20255;-82
2021/07/31 09:16:55;;;;;;;14.95;7.65;;;;;;;33.31;100.00;96045.84;5133449;27;20191;-82
2021/07/31 09:19:24;;;;;;;11.45;6.78;;;;;;;33.43;100.00;96039.81;5133380;27;20275;-83
2021/07/31 09:22:02;;;;;;;23.70;7.78;;;;;;;33.61;100.00;96041.56;5133661;27;20218;-85
2021/07/31 09:24:31;;;;;;;13.00;6.75;;;;;;;33.71;100.00;96035.88;5133619;27;20182;-85
2021/07/31 09:26:58;;;;;;;12.30;7.05;;;;;;;33.46;100.00;96044.63;5133475;27;20201;-85
2021/07/31 09:29:27;;;;;;;9.15;6.90;;;;;;;33.63;100.00;96036.59;5133697;27;20271;-85
2021/07/31 09:31:56;;;;;;;12.57;7.80;;;;;;;33.64;100.00;96040.16;5132727;27;20689;-85
2021/07/31 09:34:29;;;;;;;12.55;6.60;;;;;;;33.92;100.00;96047.03;5133474;27;20195;-85
2021/07/31 09:37:25;;;;;;;9.98;7.07;;;;;;;33.95;100.00;96038.22;5133200;27;20286;-84
2021/07/31 09:39:58;;;;;;;10.05;6.53;;;;;;;33.65;100.00;96048.00;5124276;27;20199;-85
2021/07/31 09:42:35;;;;;;;17.80;7.75;;;;;;;33.60;100.00;96039.94;5133267;27;20218;-84
2021/07/31 09:45:05;;;;;;;10.18;6.90;;;;;;;33.86;100.00;96045.56;5133586;27;20269;-84
2021/07/31 09:47:33;;;;;;;21.58;8.90;;;;;;;34.03;100.00;96036.69;5133268;27;20236;-84
2021/07/31 09:50:01;;;;;;;13.00;7.20;;;;;;;33.83;100.00;96033.34;5133349;27;20205;-84
2021/07/31 09:52:29;;;;;;;9.40;7.38;;;;;;;33.94;100.00;96030.34;5133291;27;20289;-86
2021/07/31 09:54:58;;;;;;;8.43;6.22;;;;;;;33.98;100.00;96025.88;5133281;27;20226;-85
2021/07/31 09:57:27;;;;;;;14.48;8.32;;;;;;;33.88;100.00;96021.53;5132935;27;20286;-84
2021/07/31 09:59:57;;;;;;;22.33;16.55;;;;;;;34.46;100.00;96022.38;5132903;27;20199;-84
2021/07/31 10:02:25;;;;;;;18.33;9.30;;;;;;;34.40;100.00;96021.72;5133447;27;20246;-85
2021/07/31 10:04:53;;;;;;;10.35;8.32;;;;;;;34.48;100.00;96017.41;5132899;27;20285;-83
2021/07/31 10:07:21;;;;;;;9.40;6.65;;;;;;;34.65;100.00;96025.66;5132829;27;20621;-82
2021/07/31 10:09:50;;;;;;;21.10;19.33;;;;;;;34.70;100.00;96020.03;5132809;27;20686;-81
2021/07/31 10:12:26;;;;;;;23.40;21.02;;;;;;;34.79;100.00;96011.84;5133134;27;20194;-81
2021/07/31 10:14:54;;;;;;;10.80;9.00;;;;;;;34.57;100.00;96015.53;5132936;27;20731;-81
2021/07/31 10:17:28;;;;;;;11.50;6.95;;;;;;;34.85;100.00;96012.47;5133015;27;20640;-81
2021/07/31 10:19:55;;;;;;;15.95;8.07;;;;;;;35.06;100.00;96012.72;5132498;27;20231;-80
2021/07/31 10:22:41;;;;;;;10.23;7.68;;;;;;;34.69;100.00;96012.97;5131399;27;20305;-81
2021/07/31 10:25:11;;;;;;;14.18;8.00;;;;;;;34.85;100.00;96016.03;5131792;27;20183;-81
2021/07/31 10:27:41;;;;;;;12.63;7.68;;;;;;;34.70;100.00;96002.84;5131672;27;20202;-80
2021/07/31 10:30:31;;;;;;;16.63;9.65;;;;;;;34.62;100.00;96006.38;5131508;27;20198;-81
2021/07/31 10:32:58;;;;;;;14.30;8.25;;;;;;;34.81;100.00;96008.78;5131682;27;20610;-81
2021/07/31 10:35:31;;;;;;;11.18;7.90;;;;;;;34.90;100.00;96009.59;5131498;27;20275;-82
2021/07/31 10:37:59;;;;;;;12.38;7.40;;;;;;;35.26;100.00;96009.28;5131984;27;20187;-82
2021/07/31 10:40:54;;;;;;;9.65;8.38;;;;;;;35.44;100.00;96007.34;5131601;27;20699;-82
2021/07/31 10:43:24;;;;;;;8.90;7.60;;;;;;;35.31;100.00;96006.41;5134723;27;20183;-82
2021/07/31 10:46:19;;;;;;;11.73;6.93;;;;;;;35.25;100.00;96003.03;5136127;27;20198;-82
2021/07/31 10:48:46;;;;;;;13.95;6.70;;;;;;;35.28;100.00;95993.38;5135625;27;20667;-83
2021/07/31 10:51:41;;;;;;;12.43;7.20;;;;;;;35.04;100.00;95993.91;5136196;27;20222;-83
2021/07/31 10:54:09;;;;;;;13.77;8.23;;;;;;;34.95;100.00;95984.84;5136475;27;20196;-83
2021/07/31 10:56:59;;;;;;;13.38;7.85;;;;;;;35.49;100.00;95991.56;5136937;27;20199;-83
2021/07/31 10:59:27;;;;;;;10.07;7.30;;;;;;;35.59;100.00;95990.44;5136534;27;20187;-84
2021/07/31 11:02:27;;;;;;;14.05;8.15;;;;;;;35.61;100.00;95984.66;5136221;27;20265;-83
2021/07/31 11:04:59;;;;;;;17.67;9.88;;;;;;;35.42;100.00;95974.88;5132900;27;20247;-83
2021/07/31 11:07:29;;;;;;;15.25;8.60;;;;;;;35.51;100.00;95974.91;5136470;27;20201;-83
2021/07/31 11:10:39;;;;;;;16.25;9.05;;;;;;;35.29;100.00;95975.06;5136697;27;20183;-84
2021/07/31 11:13:07;;;;;;;9.57;8.63;;;;;;;35.54;100.00;95970.69;5131109;27;20237;-83
2021/07/31 11:15:36;;;;;;;19.33;8.98;;;;;;;35.57;100.00;95976.28;5136190;27;20220;-84
2021/07/31 11:18:04;;;;;;;13.38;7.78;;;;;;;35.29;100.00;95970.41;5136418;27;20226;-83
2021/07/31 11:20:34;;;;;;;16.88;7.82;;;;;;;35.49;100.00;95972.44;5135608;27;20230;-84
2021/07/31 11:23:07;;;;;;;12.88;7.38;;;;;;;35.44;100.00;95961.69;5136484;27;20662;-84